createdAt,value
2023-10-29T00:02:24.600Z,2.90
2023-10-29T00:04:52.573Z,5.05
2023-10-29T00:07:20.168Z,4.53
2023-10-29T00:09:47.659Z,2.83
2023-10-29T00:12:15.567Z,4.38
2023-10-29T00:14:43.125Z,4.05
2023-10-29T00:17:10.715Z,3.88
2023-10-29T00:19:38.253Z,4.55
2023-10-29T00:22:06.022Z,4.13
2023-10-29T00:24:33.568Z,5.28
2023-10-29T00:27:01.153Z,5.78
2023-10-29T00:29:28.705Z,3.50
2023-10-29T00:31:56.286Z,3.70
2023-10-29T00:34:23.736Z,5.40
2023-10-29T00:36:51.339Z,4.85
2023-10-29T00:39:19.056Z,4.05
2023-10-29T00:41:46.634Z,5.85
2023-10-29T00:44:14.240Z,5.05
2023-10-29T00:46:43.193Z,3.28
2023-10-29T00:49:11.073Z,3.47
2023-10-29T00:51:38.733Z,6.18
2023-10-29T00:54:07.582Z,5.93
2023-10-29T00:56:35.364Z,5.30
2023-10-29T00:59:03.506Z,4.60
2023-10-29T01:01:32.242Z,5.55
2023-10-29T01:04:00.849Z,4.97
2023-10-29T01:06:29.359Z,5.80
2023-10-29T01:08:57.202Z,6.82
2023-10-29T01:11:24.861Z,4.00
2023-10-29T01:13:52.452Z,5.00
2023-10-29T01:16:19.969Z,6.35
2023-10-29T01:18:48.472Z,5.38
2023-10-29T01:21:17.457Z,4.10
2023-10-29T01:23:45.081Z,5.43
2023-10-29T01:26:12.744Z,5.68
2023-10-29T01:28:41.479Z,6.35
2023-10-29T01:31:09.071Z,7.97
2023-10-29T01:33:36.780Z,7.18
2023-10-29T01:36:05.092Z,7.53
2023-10-29T01:38:33.825Z,8.05
2023-10-29T01:41:01.927Z,6.40
2023-10-29T01:43:29.408Z,7.05
2023-10-29T01:45:57.046Z,7.20
2023-10-29T01:48:25.998Z,12.23
2023-10-29T01:50:53.687Z,10.98
2023-10-29T01:53:21.210Z,8.93
2023-10-29T01:55:48.770Z,10.00
2023-10-29T01:58:16.318Z,10.80
2023-10-29T02:00:43.938Z,8.15
2023-10-29T02:03:11.510Z,10.60
2023-10-29T02:05:39.948Z,10.20
2023-10-29T02:08:07.474Z,10.90
2023-10-29T02:10:35.112Z,8.70
2023-10-29T02:13:02.585Z,11.68
2023-10-29T02:15:30.142Z,9.60
2023-10-29T02:17:57.696Z,9.30
2023-10-29T02:20:25.364Z,5.55
2023-10-29T02:22:52.822Z,7.93
2023-10-29T02:25:20.468Z,5.30
2023-10-29T02:27:51.275Z,6.00
2023-10-29T02:30:19.058Z,6.93
2023-10-29T02:32:46.971Z,9.23
2023-10-29T02:35:15.549Z,4.97
2023-10-29T02:37:43.053Z,5.78
2023-10-29T02:40:10.979Z,4.60
2023-10-29T02:42:38.418Z,8.88
2023-10-29T02:45:06.352Z,6.15
2023-10-29T02:47:33.936Z,3.58
2023-10-29T02:50:01.524Z,5.47
2023-10-29T02:52:29.074Z,4.20
2023-10-29T02:54:57.869Z,4.70
2023-10-29T02:57:25.505Z,6.90
2023-10-29T02:59:53.093Z,3.88
2023-10-29T03:02:20.700Z,3.58
2023-10-29T03:04:48.531Z,2.60
2023-10-29T03:07:16.249Z,5.00
2023-10-29T03:09:43.754Z,7.63
2023-10-29T03:12:11.279Z,5.60
2023-10-29T03:14:38.851Z,2.75
2023-10-29T03:17:06.391Z,4.43
2023-10-29T03:19:34.083Z,3.58
2023-10-29T03:22:03.139Z,5.20
2023-10-29T03:24:30.713Z,4.30
2023-10-29T03:26:58.277Z,3.95
2023-10-29T03:29:25.908Z,4.13
2023-10-29T03:31:53.472Z,4.13
2023-10-29T03:34:21.081Z,4.35
2023-10-29T03:36:48.666Z,5.22
2023-10-29T03:39:17.608Z,6.68
2023-10-29T03:41:45.148Z,2.38
2023-10-29T03:44:12.713Z,4.68
2023-10-29T03:46:40.284Z,4.63
2023-10-29T03:49:07.882Z,4.07
2023-10-29T03:51:36.063Z,5.60
2023-10-29T03:54:04.434Z,4.68
2023-10-29T03:56:31.972Z,4.80
2023-10-29T03:58:59.971Z,3.25
2023-10-29T04:01:28.063Z,4.95
2023-10-29T04:03:55.722Z,6.13
2023-10-29T04:06:23.264Z,5.28
2023-10-29T04:08:51.205Z,4.40
2023-10-29T04:11:18.805Z,5.90
2023-10-29T04:13:46.482Z,4.57
2023-10-29T04:16:14.272Z,5.07
2023-10-29T04:18:42.074Z,3.60
2023-10-29T04:21:09.604Z,5.72
2023-10-29T04:23:38.014Z,2.38
2023-10-29T04:26:05.622Z,4.38
2023-10-29T04:28:33.170Z,3.00
2023-10-29T04:31:01.540Z,3.22
2023-10-29T04:33:29.597Z,4.03
2023-10-29T04:35:57.194Z,3.03
2023-10-29T04:38:24.842Z,3.78
2023-10-29T04:40:53.107Z,3.30
2023-10-29T04:43:20.662Z,1.80
2023-10-29T04:45:48.208Z,2.55
2023-10-29T04:48:17.645Z,4.38
2023-10-29T04:50:45.293Z,3.38
2023-10-29T04:53:13.234Z,2.90
2023-10-29T04:55:40.809Z,6.82
2023-10-29T04:58:08.324Z,2.47
2023-10-29T05:00:35.921Z,4.03
2023-10-29T05:03:03.674Z,2.50
2023-10-29T05:05:32.164Z,9.73
2023-10-29T05:08:00.116Z,1.77
2023-10-29T05:10:29.660Z,4.65
2023-10-29T05:12:57.957Z,2.85
2023-10-29T05:15:26.135Z,4.22
2023-10-29T05:17:53.826Z,2.22
2023-10-29T05:20:21.602Z,5.70
2023-10-29T05:22:49.196Z,3.05
2023-10-29T05:25:16.882Z,2.95
2023-10-29T05:27:52.734Z,3.75
2023-10-29T05:30:20.870Z,1.95
2023-10-29T05:32:48.780Z,3.83
2023-10-29T05:35:16.571Z,4.07
2023-10-29T05:37:44.102Z,3.10
2023-10-29T05:40:12.185Z,1.75
2023-10-29T05:42:39.718Z,3.85
2023-10-29T05:45:08.322Z,5.60
2023-10-29T05:47:35.956Z,3.25
2023-10-29T05:50:05.512Z,7.03
2023-10-29T05:52:33.783Z,4.10
2023-10-29T05:55:04.942Z,1.58
2023-10-29T05:57:32.564Z,1.92
2023-10-29T06:00:00.440Z,2.42
2023-10-29T06:02:28.281Z,4.20
2023-10-29T06:04:55.833Z,4.55
2023-10-29T06:07:23.441Z,1.20
2023-10-29T06:09:50.895Z,2.42
2023-10-29T06:12:19.562Z,4.10
2023-10-29T06:14:48.366Z,4.65
2023-10-29T06:17:26.619Z,2.10
2023-10-29T06:19:54.910Z,2.72
2023-10-29T06:22:22.592Z,5.50
2023-10-29T06:24:50.294Z,3.10
2023-10-29T06:27:17.889Z,4.80
2023-10-29T06:29:45.688Z,6.25
2023-10-29T06:32:13.269Z,3.60
2023-10-29T06:34:40.859Z,3.97
2023-10-29T06:37:08.359Z,4.15
2023-10-29T06:39:35.877Z,3.28
2023-10-29T06:42:03.433Z,3.17
2023-10-29T06:44:31.387Z,2.15
2023-10-29T06:46:58.838Z,4.43
2023-10-29T06:49:26.741Z,3.22
2023-10-29T06:51:55.081Z,2.08
2023-10-29T06:54:22.680Z,3.40
2023-10-29T06:56:50.307Z,4.38
2023-10-29T06:59:19.757Z,3.58
2023-10-29T07:01:48.520Z,1.27
2023-10-29T07:04:16.536Z,3.08
2023-10-29T07:06:45.356Z,4.75
2023-10-29T07:09:13.025Z,1.73
2023-10-29T07:11:41.671Z,2.38
2023-10-29T07:14:09.788Z,3.03
2023-10-29T07:16:39.002Z,1.58
2023-10-29T07:19:06.670Z,1.13
2023-10-29T07:21:34.302Z,1.85
2023-10-29T07:24:04.854Z,4.32
2023-10-29T07:26:36.224Z,1.38
2023-10-29T07:29:04.114Z,1.77
2023-10-29T07:31:32.213Z,1.20
2023-10-29T07:33:59.824Z,2.22
2023-10-29T07:36:27.382Z,3.83
2023-10-29T07:38:55.176Z,2.75
2023-10-29T07:41:22.990Z,4.90
2023-10-29T07:43:50.705Z,4.13
2023-10-29T07:46:18.234Z,1.50
2023-10-29T07:48:45.763Z,2.75
2023-10-29T07:51:13.345Z,4.97
2023-10-29T07:53:40.919Z,4.25
2023-10-29T07:56:12.296Z,3.40
2023-10-29T07:58:40.196Z,2.75
2023-10-29T08:01:12.229Z,1.55
2023-10-29T08:03:44.444Z,3.10
2023-10-29T08:06:13.575Z,1.35
2023-10-29T08:08:41.664Z,2.85
2023-10-29T08:11:19.549Z,4.30
2023-10-29T08:13:47.393Z,2.83
2023-10-29T08:16:15.254Z,1.67
2023-10-29T08:18:42.927Z,3.58
2023-10-29T08:21:10.614Z,3.15
2023-10-29T08:23:38.307Z,2.83
2023-10-29T08:26:05.836Z,1.50
2023-10-29T08:28:33.443Z,2.78
2023-10-29T08:31:00.958Z,3.30
2023-10-29T08:33:28.725Z,2.95
2023-10-29T08:35:56.339Z,4.53
2023-10-29T08:38:23.918Z,2.13
2023-10-29T08:40:51.542Z,3.85
2023-10-29T08:43:19.138Z,3.17
2023-10-29T08:45:46.754Z,4.22
2023-10-29T08:48:14.588Z,4.65
2023-10-29T08:50:42.145Z,2.58
2023-10-29T08:53:09.747Z,2.65
2023-10-29T08:55:37.299Z,2.97
2023-10-29T08:58:04.849Z,6.97
2023-10-29T09:00:45.508Z,2.08
2023-10-29T09:03:16.182Z,1.67
2023-10-29T09:05:44.814Z,4.78
2023-10-29T09:08:12.921Z,3.95
2023-10-29T09:10:44.142Z,1.48
2023-10-29T09:13:12.351Z,1.88
2023-10-29T09:15:40.078Z,3.17
2023-10-29T09:18:07.973Z,3.47
2023-10-29T09:20:39.644Z,2.92
2023-10-29T09:23:07.401Z,3.85
2023-10-29T09:25:35.202Z,1.25
2023-10-29T09:28:06.345Z,2.38
2023-10-29T09:30:34.074Z,3.10
2023-10-29T09:33:01.645Z,3.72
2023-10-29T09:35:29.254Z,3.08
2023-10-29T09:37:56.709Z,2.25
2023-10-29T09:40:24.451Z,3.15
2023-10-29T09:42:57.177Z,2.20
2023-10-29T09:45:27.248Z,1.92
2023-10-29T09:47:56.073Z,2.22
2023-10-29T09:50:23.683Z,1.52
2023-10-29T09:52:52.701Z,1.90
2023-10-29T09:55:24.339Z,2.70
2023-10-29T09:57:52.347Z,2.20
2023-10-29T10:00:20.194Z,1.58
2023-10-29T10:02:53.040Z,3.22
2023-10-29T10:05:25.232Z,1.02
2023-10-29T10:07:53.546Z,2.33
2023-10-29T10:10:22.322Z,3.45
2023-10-29T10:12:51.851Z,2.83
2023-10-29T10:15:20.609Z,1.55
2023-10-29T10:17:50.386Z,0.93
2023-10-29T10:20:22.012Z,1.48
2023-10-29T10:23:16.823Z,1.63
2023-10-29T10:25:44.440Z,0.73
2023-10-29T10:28:11.932Z,3.40
2023-10-29T10:30:40.319Z,1.17
2023-10-29T10:33:16.239Z,2.05
2023-10-29T10:35:52.992Z,2.03
2023-10-29T10:38:21.595Z,1.30
2023-10-29T10:40:58.802Z,1.48
2023-10-29T10:43:28.119Z,2.13
2023-10-29T10:45:56.419Z,2.67
2023-10-29T10:48:24.390Z,1.25
2023-10-29T10:50:54.532Z,1.27
2023-10-29T10:53:25.366Z,1.52
2023-10-29T10:56:02.982Z,1.13
2023-10-29T10:58:34.296Z,2.95
2023-10-29T11:01:04.090Z,1.88
2023-10-29T11:03:34.466Z,2.05
2023-10-29T11:06:02.914Z,1.63
2023-10-29T11:08:30.478Z,1.13
2023-10-29T11:10:59.910Z,1.75
2023-10-29T11:13:28.280Z,2.45
2023-10-29T11:15:56.941Z,1.83
2023-10-29T11:18:33.610Z,2.90
2023-10-29T11:21:06.647Z,1.75
2023-10-29T11:23:35.946Z,1.58
2023-10-29T11:26:24.550Z,1.48
2023-10-29T11:28:54.969Z,3.10
2023-10-29T11:31:24.344Z,2.35
2023-10-29T11:33:57.785Z,1.98
2023-10-29T11:36:33.260Z,3.72
2023-10-29T11:39:16.463Z,4.57
2023-10-29T11:41:46.021Z,5.53
2023-10-29T11:44:19.842Z,5.38
2023-10-29T11:49:27.516Z,2.65
2023-10-29T11:51:55.845Z,5.10
2023-10-29T11:54:24.029Z,4.60
2023-10-29T11:56:52.713Z,2.45
2023-10-29T11:59:20.317Z,5.60
2023-10-29T12:01:47.873Z,2.97
2023-10-29T12:04:15.854Z,3.15
2023-10-29T12:06:45.569Z,1.60
2023-10-29T12:09:19.258Z,3.20
2023-10-29T12:11:55.327Z,5.82
2023-10-29T12:14:44.704Z,1.80
2023-10-29T12:17:14.100Z,2.58
2023-10-29T12:19:44.844Z,3.33
2023-10-29T12:22:15.171Z,2.75
2023-10-29T12:24:43.980Z,4.30
2023-10-29T12:27:11.746Z,3.50
2023-10-29T12:29:39.354Z,2.95
2023-10-29T12:32:15.444Z,4.07
2023-10-29T12:34:50.823Z,2.70
2023-10-29T12:37:26.463Z,4.95
2023-10-29T12:40:01.338Z,4.63
2023-10-29T12:42:54.484Z,2.85
2023-10-29T12:45:30.022Z,3.03
2023-10-29T12:48:14.079Z,5.03
2023-10-29T12:53:13.806Z,4.38
2023-10-29T12:55:45.834Z,4.15
2023-10-29T12:58:13.386Z,4.05
2023-10-29T13:00:40.963Z,5.18
2023-10-29T13:03:08.835Z,4.30
2023-10-29T13:05:36.367Z,4.00
2023-10-29T13:08:06.133Z,3.63
2023-10-29T13:10:34.330Z,4.28
2023-10-29T13:13:01.902Z,6.03
2023-10-29T13:15:30.923Z,2.83
2023-10-29T13:17:58.451Z,8.52
2023-10-29T13:20:28.086Z,4.85
2023-10-29T13:22:55.990Z,2.55
2023-10-29T13:25:23.908Z,1.98
2023-10-29T13:27:51.577Z,2.05
2023-10-29T13:30:19.676Z,3.80
2023-10-29T13:32:47.897Z,2.38
2023-10-29T13:35:17.908Z,4.18
2023-10-29T13:37:45.590Z,2.95
2023-10-29T13:40:13.208Z,3.50
2023-10-29T13:42:40.834Z,4.20
2023-10-29T13:45:08.826Z,2.70
2023-10-29T13:47:36.403Z,4.65
2023-10-29T13:50:04.283Z,5.72
2023-10-29T13:52:31.827Z,4.70
2023-10-29T13:54:59.279Z,2.95
2023-10-29T13:57:26.935Z,3.58
2023-10-29T13:59:54.438Z,2.78
2023-10-29T14:02:22.083Z,3.42
2023-10-29T14:04:49.919Z,5.47
2023-10-29T14:07:17.735Z,3.83
2023-10-29T14:09:45.451Z,4.88
2023-10-29T14:12:13.022Z,4.30
2023-10-29T14:14:40.551Z,3.85
2023-10-29T14:17:08.131Z,4.57
2023-10-29T14:19:36.660Z,5.10
2023-10-29T14:22:04.570Z,3.88
2023-10-29T14:24:31.975Z,3.08
2023-10-29T14:27:00.285Z,2.95
2023-10-29T14:29:28.256Z,5.95
2023-10-29T14:31:56.047Z,3.35
2023-10-29T14:34:23.641Z,4.00
2023-10-29T14:36:51.231Z,3.35
2023-10-29T14:39:18.810Z,3.70
2023-10-29T14:41:47.145Z,3.58
2023-10-29T14:44:16.094Z,4.03
2023-10-29T14:46:43.735Z,5.03
2023-10-29T14:49:11.946Z,4.70
2023-10-29T14:51:40.655Z,5.50
2023-10-29T14:54:08.534Z,3.85
2023-10-29T14:56:36.089Z,3.15
2023-10-29T14:59:05.095Z,5.10
2023-10-29T15:01:32.940Z,3.97
2023-10-29T15:04:00.538Z,3.35
2023-10-29T15:06:28.162Z,5.18
2023-10-29T15:08:55.650Z,3.80
2023-10-29T15:11:36.190Z,3.03
2023-10-29T15:14:06.634Z,3.67
2023-10-29T15:16:34.860Z,5.13
2023-10-29T15:19:05.532Z,3.08
2023-10-29T15:21:34.396Z,5.18
2023-10-29T15:24:02.379Z,5.20
2023-10-29T15:26:30.066Z,7.53
2023-10-29T15:28:57.550Z,4.32
2023-10-29T15:31:25.259Z,7.22
2023-10-29T15:33:53.311Z,5.65
2023-10-29T15:36:20.940Z,6.90
2023-10-29T15:38:48.490Z,5.60
2023-10-29T15:41:17.065Z,6.22
2023-10-29T15:43:44.553Z,10.00
2023-10-29T15:46:12.168Z,4.97
2023-10-29T15:48:39.764Z,6.30
2023-10-29T15:51:09.826Z,9.05
2023-10-29T15:53:38.075Z,4.90
2023-10-29T15:56:07.547Z,6.53
2023-10-29T15:58:35.110Z,3.40
2023-10-29T16:01:02.951Z,6.07
2023-10-29T16:03:31.206Z,8.63
2023-10-29T16:06:07.569Z,9.02
2023-10-29T16:08:39.725Z,8.20
2023-10-29T16:11:08.898Z,4.90
2023-10-29T16:13:37.829Z,5.93
2023-10-29T16:16:06.046Z,6.25
2023-10-29T16:18:33.736Z,4.28
2023-10-29T16:21:01.308Z,7.22
2023-10-29T16:23:28.858Z,5.93
2023-10-29T16:25:56.428Z,5.82
2023-10-29T16:28:23.907Z,4.82
2023-10-29T16:30:51.493Z,7.43
2023-10-29T16:33:19.118Z,5.43
2023-10-29T16:35:46.779Z,7.32
2023-10-29T16:38:14.301Z,7.72
2023-10-29T16:40:44.715Z,8.80
2023-10-29T16:43:12.337Z,5.93
2023-10-29T16:45:40.019Z,7.28
2023-10-29T16:48:08.183Z,8.77
2023-10-29T16:50:52.363Z,4.07
2023-10-29T16:53:27.483Z,6.38
2023-10-29T16:55:54.977Z,5.03
2023-10-29T16:58:22.826Z,9.18
2023-10-29T17:00:50.321Z,5.60
2023-10-29T17:03:18.048Z,5.13
2023-10-29T17:05:45.721Z,4.93
2023-10-29T17:08:14.046Z,8.27
2023-10-29T17:10:41.573Z,7.53
2023-10-29T17:13:09.222Z,5.32
2023-10-29T17:15:37.058Z,8.70
2023-10-29T17:18:04.809Z,6.10
2023-10-29T17:20:32.309Z,7.55
2023-10-29T17:22:59.860Z,6.60
2023-10-29T17:25:27.389Z,6.03
2023-10-29T17:27:55.511Z,6.47
2023-10-29T17:30:23.697Z,8.13
2023-10-29T17:32:58.832Z,6.85
2023-10-29T17:35:31.191Z,8.07
2023-10-29T17:37:58.868Z,6.55
2023-10-29T17:40:27.015Z,6.53
2023-10-29T17:42:54.614Z,7.45
2023-10-29T17:45:22.320Z,6.53
2023-10-29T17:47:50.527Z,6.22
2023-10-29T17:50:18.026Z,7.30
2023-10-29T17:52:45.585Z,8.20
2023-10-29T17:55:13.139Z,8.52
2023-10-29T17:57:40.755Z,6.60
2023-10-29T18:00:09.164Z,6.53
2023-10-29T18:02:40.546Z,6.45
2023-10-29T18:05:11.994Z,7.13
2023-10-29T18:07:40.968Z,7.18
2023-10-29T18:10:08.813Z,6.50
2023-10-29T18:12:36.368Z,6.57
2023-10-29T18:15:04.000Z,7.82
2023-10-29T18:17:33.215Z,9.02
2023-10-29T18:20:00.830Z,4.97
2023-10-29T18:22:28.364Z,8.95
2023-10-29T18:24:56.011Z,7.70
2023-10-29T18:27:24.513Z,5.75
2023-10-29T18:29:52.160Z,5.25
2023-10-29T18:32:19.864Z,8.13
2023-10-29T18:34:47.697Z,6.45
2023-10-29T18:37:15.535Z,6.18
2023-10-29T18:39:42.956Z,6.85
2023-10-29T18:42:10.749Z,6.95
2023-10-29T18:44:38.211Z,8.25
2023-10-29T18:47:09.002Z,6.15
2023-10-29T18:49:36.613Z,5.57
2023-10-29T18:52:04.715Z,5.78
2023-10-29T18:54:32.370Z,6.70
2023-10-29T18:57:00.523Z,5.57
2023-10-29T18:59:28.309Z,6.30
2023-10-29T19:01:55.823Z,5.60
2023-10-29T19:04:23.547Z,6.13
2023-10-29T19:06:51.053Z,6.65
2023-10-29T19:09:19.234Z,6.55
2023-10-29T19:11:46.745Z,7.47
2023-10-29T19:14:14.302Z,5.70
2023-10-29T19:16:41.764Z,7.60
2023-10-29T19:19:09.713Z,6.68
2023-10-29T19:21:37.277Z,8.77
2023-10-29T19:24:05.218Z,5.00
2023-10-29T19:26:32.786Z,6.20
2023-10-29T19:29:00.307Z,7.63
2023-10-29T19:31:28.195Z,6.95
2023-10-29T19:33:55.984Z,6.88
2023-10-29T19:36:23.935Z,5.93
2023-10-29T19:38:51.484Z,6.28
2023-10-29T19:41:19.179Z,8.05
2023-10-29T19:43:46.788Z,7.90
2023-10-29T19:46:14.276Z,9.20
2023-10-29T19:48:41.938Z,7.13
2023-10-29T19:51:09.751Z,10.68
2023-10-29T19:53:37.796Z,6.70
2023-10-29T19:56:09.472Z,5.60
2023-10-29T19:58:37.074Z,7.80
2023-10-29T20:01:09.516Z,4.95
2023-10-29T20:03:37.918Z,7.60
2023-10-29T20:06:09.656Z,6.43
2023-10-29T20:08:39.242Z,6.05
2023-10-29T20:11:09.651Z,6.53
2023-10-29T20:13:38.243Z,6.45
2023-10-29T20:16:09.937Z,6.78
2023-10-29T20:18:38.384Z,9.40
2023-10-29T20:21:12.193Z,9.23
2023-10-29T20:26:17.143Z,5.43
2023-10-29T20:28:45.711Z,6.35
2023-10-29T20:31:13.179Z,8.13
2023-10-29T20:33:40.944Z,14.85
2023-10-29T20:36:09.000Z,6.00
2023-10-29T20:38:36.576Z,7.32
2023-10-29T20:41:10.394Z,3.33
2023-10-29T20:43:38.811Z,8.57
2023-10-29T20:46:06.420Z,6.43
2023-10-29T20:48:34.099Z,4.55
2023-10-29T20:51:02.488Z,4.00
2023-10-29T20:53:30.524Z,2.25
2023-10-29T20:55:58.100Z,4.50
2023-10-29T20:58:25.586Z,5.97
2023-10-29T21:00:53.063Z,7.03
2023-10-29T21:03:20.845Z,8.52
2023-10-29T21:05:56.453Z,5.22
2023-10-29T21:08:24.156Z,4.70
2023-10-29T21:10:53.385Z,5.82
2023-10-29T21:13:20.902Z,7.25
2023-10-29T21:15:48.745Z,6.40
2023-10-29T21:18:16.400Z,5.95
2023-10-29T21:20:46.434Z,5.75
2023-10-29T21:23:14.052Z,5.97
2023-10-29T21:25:41.584Z,6.35
2023-10-29T21:28:09.251Z,6.97
2023-10-29T21:30:38.824Z,10.73
2023-10-29T21:33:06.541Z,6.43
2023-10-29T21:35:35.518Z,5.85
2023-10-29T21:38:03.163Z,5.38
2023-10-29T21:40:34.621Z,4.88
2023-10-29T21:43:02.396Z,4.45
2023-10-29T21:45:29.953Z,6.32
2023-10-29T21:47:57.591Z,6.60
2023-10-29T21:50:25.150Z,4.60
2023-10-29T21:52:52.740Z,6.57
2023-10-29T21:55:20.295Z,6.25
2023-10-29T21:57:47.917Z,4.57
2023-10-29T22:00:15.670Z,4.82
2023-10-29T22:02:43.361Z,5.18
2023-10-29T22:05:10.920Z,9.18
2023-10-29T22:07:38.465Z,5.80
2023-10-29T22:10:06.512Z,5.30
2023-10-29T22:12:34.060Z,4.82
2023-10-29T22:15:01.688Z,5.13
2023-10-29T22:17:29.282Z,4.43
2023-10-29T22:19:56.748Z,1.92
2023-10-29T22:22:24.244Z,2.30
2023-10-29T22:24:51.720Z,3.63
2023-10-29T22:27:19.804Z,1.85
2023-10-29T22:29:47.498Z,2.92
2023-10-29T22:32:15.952Z,3.60
2023-10-29T22:34:43.490Z,2.47
2023-10-29T22:37:11.367Z,1.58
2023-10-29T22:39:38.977Z,1.27
2023-10-29T22:42:08.021Z,3.58
2023-10-29T22:44:35.483Z,3.05
2023-10-29T22:47:03.176Z,4.30
2023-10-29T22:49:30.683Z,5.07
2023-10-29T22:51:58.320Z,2.38
2023-10-29T22:54:25.837Z,1.45
2023-10-29T22:56:53.433Z,1.10
2023-10-29T22:59:20.931Z,1.33
2023-10-29T23:01:48.439Z,1.17
2023-10-29T23:04:16.017Z,1.45
2023-10-29T23:06:43.702Z,2.08
2023-10-29T23:09:11.315Z,3.53
2023-10-29T23:11:38.968Z,4.30
2023-10-29T23:14:06.403Z,2.03
2023-10-29T23:16:34.058Z,2.55
2023-10-29T23:19:01.574Z,3.75
2023-10-29T23:21:29.124Z,2.35
2023-10-29T23:23:56.624Z,2.80
2023-10-29T23:26:24.226Z,2.35
2023-10-29T23:28:51.747Z,1.80
2023-10-29T23:31:19.331Z,3.08
2023-10-29T23:33:46.878Z,4.43
2023-10-29T23:36:14.541Z,3.45
2023-10-29T23:38:42.020Z,4.55
2023-10-29T23:41:09.640Z,5.55
2023-10-29T23:43:37.096Z,4.93
2023-10-29T23:46:05.406Z,4.32
2023-10-29T23:48:33.035Z,5.43
2023-10-29T23:51:00.544Z,6.13
2023-10-29T23:53:28.092Z,3.58
2023-10-29T23:55:56.195Z,4.72
2023-10-29T23:58:23.639Z,6.47
